sensor_id;sensor_type;location;lat;lon;timestamp;P1;durP1;ratioP1;P2;durP2;ratioP2
50128;SDS011;36026;45.478;9.224;2024-02-14T00:00:34;59.80;;;33.80;;
50128;SDS011;36026;45.478;9.224;2024-02-14T00:03:35;139.43;;;67.00;;
50128;SDS011;36026;45.478;9.224;2024-02-14T00:06:38;113.00;;;56.22;;
50128;SDS011;36026;45.478;9.224;2024-02-14T00:09:39;76.45;;;38.70;;
50128;SDS011;36026;45.478;9.224;2024-02-14T00:12:41;35.42;;;19.23;;
50128;SDS011;36026;45.478;9.224;2024-02-14T00:15:44;22.42;;;13.75;;
50128;SDS011;36026;45.478;9.224;2024-02-14T00:18:46;18.27;;;12.15;;
50128;SDS011;36026;45.478;9.224;2024-02-14T00:21:47;18.15;;;11.40;;
50128;SDS011;36026;45.478;9.224;2024-02-14T00:24:49;18.00;;;11.55;;
50128;SDS011;36026;45.478;9.224;2024-02-14T00:27:50;19.53;;;11.67;;
50128;SDS011;36026;45.478;9.224;2024-02-14T00:30:53;17.67;;;11.70;;
50128;SDS011;36026;45.478;9.224;2024-02-14T00:33:55;17.13;;;11.48;;
50128;SDS011;36026;45.478;9.224;2024-02-14T00:36:56;19.55;;;11.43;;
50128;SDS011;36026;45.478;9.224;2024-02-14T00:39:58;18.87;;;11.87;;
50128;SDS011;36026;45.478;9.224;2024-02-14T00:42:59;16.45;;;11.18;;
50128;SDS011;36026;45.478;9.224;2024-02-14T00:46:02;16.40;;;11.63;;
50128;SDS011;36026;45.478;9.224;2024-02-14T00:49:03;16.48;;;10.85;;
50128;SDS011;36026;45.478;9.224;2024-02-14T00:52:05;14.63;;;10.55;;
50128;SDS011;36026;45.478;9.224;2024-02-14T00:55:07;15.77;;;10.93;;
50128;SDS011;36026;45.478;9.224;2024-02-14T00:58:09;15.90;;;10.68;;
50128;SDS011;36026;45.478;9.224;2024-02-14T01:01:11;15.13;;;10.25;;
50128;SDS011;36026;45.478;9.224;2024-02-14T01:04:13;15.57;;;10.80;;
50128;SDS011;36026;45.478;9.224;2024-02-14T01:07:14;14.27;;;10.25;;
50128;SDS011;36026;45.478;9.224;2024-02-14T01:10:16;14.55;;;10.40;;
50128;SDS011;36026;45.478;9.224;2024-02-14T01:13:18;16.33;;;10.68;;
50128;SDS011;36026;45.478;9.224;2024-02-14T01:16:21;16.08;;;10.68;;
50128;SDS011;36026;45.478;9.224;2024-02-14T01:19:23;14.95;;;10.52;;
50128;SDS011;36026;45.478;9.224;2024-02-14T01:22:28;16.80;;;11.10;;
50128;SDS011;36026;45.478;9.224;2024-02-14T01:25:30;16.45;;;10.23;;
50128;SDS011;36026;45.478;9.224;2024-02-14T01:28:31;15.65;;;10.52;;
50128;SDS011;36026;45.478;9.224;2024-02-14T01:31:35;13.32;;;9.02;;
50128;SDS011;36026;45.478;9.224;2024-02-14T01:34:36;14.18;;;9.82;;
50128;SDS011;36026;45.478;9.224;2024-02-14T01:37:37;14.52;;;9.40;;
50128;SDS011;36026;45.478;9.224;2024-02-14T01:40:42;16.37;;;9.67;;
50128;SDS011;36026;45.478;9.224;2024-02-14T01:43:43;15.13;;;10.20;;
50128;SDS011;36026;45.478;9.224;2024-02-14T01:46:46;16.93;;;9.90;;
50128;SDS011;36026;45.478;9.224;2024-02-14T01:49:48;13.65;;;9.43;;
50128;SDS011;36026;45.478;9.224;2024-02-14T01:52:49;14.93;;;9.23;;
50128;SDS011;36026;45.478;9.224;2024-02-14T01:55:51;16.43;;;10.67;;
50128;SDS011;36026;45.478;9.224;2024-02-14T01:58:52;14.57;;;9.82;;
50128;SDS011;36026;45.478;9.224;2024-02-14T02:01:55;16.33;;;9.70;;
50128;SDS011;36026;45.478;9.224;2024-02-14T02:04:57;14.52;;;9.30;;
50128;SDS011;36026;45.478;9.224;2024-02-14T02:07:58;14.85;;;9.48;;
50128;SDS011;36026;45.478;9.224;2024-02-14T02:11:00;13.85;;;9.93;;
50128;SDS011;36026;45.478;9.224;2024-02-14T02:14:01;13.38;;;9.65;;
50128;SDS011;36026;45.478;9.224;2024-02-14T02:17:04;14.03;;;8.83;;
50128;SDS011;36026;45.478;9.224;2024-02-14T02:20:08;14.40;;;9.35;;
50128;SDS011;36026;45.478;9.224;2024-02-14T02:23:11;13.93;;;9.07;;
50128;SDS011;36026;45.478;9.224;2024-02-14T02:26:14;13.13;;;9.30;;
50128;SDS011;36026;45.478;9.224;2024-02-14T02:29:16;14.90;;;9.25;;
50128;SDS011;36026;45.478;9.224;2024-02-14T02:32:19;13.40;;;9.02;;
50128;SDS011;36026;45.478;9.224;2024-02-14T02:35:21;14.55;;;9.65;;
50128;SDS011;36026;45.478;9.224;2024-02-14T02:38:25;13.03;;;9.13;;
50128;SDS011;36026;45.478;9.224;2024-02-14T02:41:27;13.57;;;9.57;;
50128;SDS011;36026;45.478;9.224;2024-02-14T02:44:28;14.30;;;9.70;;
50128;SDS011;36026;45.478;9.224;2024-02-14T02:47:30;15.37;;;9.73;;
50128;SDS011;36026;45.478;9.224;2024-02-14T02:50:31;15.18;;;9.95;;
50128;SDS011;36026;45.478;9.224;2024-02-14T02:53:35;15.75;;;9.60;;
50128;SDS011;36026;45.478;9.224;2024-02-14T02:56:36;15.68;;;10.27;;
50128;SDS011;36026;45.478;9.224;2024-02-14T02:59:38;14.50;;;9.82;;
50128;SDS011;36026;45.478;9.224;2024-02-14T03:02:43;14.25;;;9.85;;
50128;SDS011;36026;45.478;9.224;2024-02-14T03:05:44;15.17;;;9.80;;
50128;SDS011;36026;45.478;9.224;2024-02-14T03:08:47;14.83;;;10.00;;
50128;SDS011;36026;45.478;9.224;2024-02-14T03:11:52;14.88;;;9.77;;
50128;SDS011;36026;45.478;9.224;2024-02-14T03:14:56;15.90;;;9.98;;
50128;SDS011;36026;45.478;9.224;2024-02-14T03:17:58;14.82;;;10.20;;
50128;SDS011;36026;45.478;9.224;2024-02-14T03:21:00;16.25;;;9.95;;
50128;SDS011;36026;45.478;9.224;2024-02-14T03:24:03;15.60;;;9.90;;
50128;SDS011;36026;45.478;9.224;2024-02-14T03:27:05;14.32;;;9.52;;
50128;SDS011;36026;45.478;9.224;2024-02-14T03:30:07;16.73;;;9.63;;
50128;SDS011;36026;45.478;9.224;2024-02-14T03:33:08;16.83;;;10.57;;
50128;SDS011;36026;45.478;9.224;2024-02-14T03:36:10;13.73;;;9.13;;
50128;SDS011;36026;45.478;9.224;2024-02-14T03:39:12;14.75;;;9.48;;
50128;SDS011;36026;45.478;9.224;2024-02-14T03:42:14;14.65;;;8.73;;
50128;SDS011;36026;45.478;9.224;2024-02-14T03:45:16;12.93;;;8.65;;
50128;SDS011;36026;45.478;9.224;2024-02-14T03:48:18;14.55;;;9.10;;
50128;SDS011;36026;45.478;9.224;2024-02-14T03:51:20;14.15;;;9.63;;
50128;SDS011;36026;45.478;9.224;2024-02-14T03:54:22;14.30;;;9.55;;
50128;SDS011;36026;45.478;9.224;2024-02-14T03:57:24;14.80;;;9.00;;
50128;SDS011;36026;45.478;9.224;2024-02-14T04:00:28;13.57;;;9.18;;
50128;SDS011;36026;45.478;9.224;2024-02-14T04:03:30;13.60;;;9.43;;
50128;SDS011;36026;45.478;9.224;2024-02-14T04:06:31;12.60;;;9.07;;
50128;SDS011;36026;45.478;9.224;2024-02-14T04:09:34;14.63;;;9.43;;
50128;SDS011;36026;45.478;9.224;2024-02-14T04:12:35;14.43;;;9.73;;
50128;SDS011;36026;45.478;9.224;2024-02-14T04:15:37;14.20;;;8.90;;
50128;SDS011;36026;45.478;9.224;2024-02-14T04:18:38;14.90;;;9.32;;
50128;SDS011;36026;45.478;9.224;2024-02-14T04:21:40;15.20;;;9.48;;
50128;SDS011;36026;45.478;9.224;2024-02-14T04:24:42;12.68;;;8.70;;
50128;SDS011;36026;45.478;9.224;2024-02-14T04:27:44;11.77;;;8.57;;
50128;SDS011;36026;45.478;9.224;2024-02-14T04:30:45;15.05;;;9.43;;
50128;SDS011;36026;45.478;9.224;2024-02-14T04:33:48;13.90;;;9.23;;
50128;SDS011;36026;45.478;9.224;2024-02-14T04:36:52;16.57;;;9.43;;
50128;SDS011;36026;45.478;9.224;2024-02-14T04:39:55;14.07;;;9.27;;
50128;SDS011;36026;45.478;9.224;2024-02-14T04:42:56;14.30;;;9.57;;
50128;SDS011;36026;45.478;9.224;2024-02-14T04:45:57;15.77;;;9.20;;
50128;SDS011;36026;45.478;9.224;2024-02-14T04:48:59;13.35;;;8.85;;
50128;SDS011;36026;45.478;9.224;2024-02-14T04:52:03;16.33;;;9.20;;
50128;SDS011;36026;45.478;9.224;2024-02-14T04:55:06;16.85;;;9.98;;
50128;SDS011;36026;45.478;9.224;2024-02-14T04:58:08;14.70;;;9.77;;
50128;SDS011;36026;45.478;9.224;2024-02-14T05:01:10;16.08;;;9.75;;
50128;SDS011;36026;45.478;9.224;2024-02-14T05:04:11;14.32;;;9.48;;
50128;SDS011;36026;45.478;9.224;2024-02-14T05:07:13;15.65;;;10.13;;
50128;SDS011;36026;45.478;9.224;2024-02-14T05:10:17;13.80;;;9.77;;
50128;SDS011;36026;45.478;9.224;2024-02-14T05:13:19;14.98;;;9.95;;
50128;SDS011;36026;45.478;9.224;2024-02-14T05:16:20;14.80;;;9.67;;
50128;SDS011;36026;45.478;9.224;2024-02-14T05:19:22;16.52;;;9.90;;
50128;SDS011;36026;45.478;9.224;2024-02-14T05:22:23;14.50;;;9.07;;
50128;SDS011;36026;45.478;9.224;2024-02-14T05:25:26;15.68;;;9.35;;
50128;SDS011;36026;45.478;9.224;2024-02-14T05:28:29;15.20;;;9.50;;
50128;SDS011;36026;45.478;9.224;2024-02-14T05:31:42;13.20;;;9.13;;
50128;SDS011;36026;45.478;9.224;2024-02-14T05:34:43;14.60;;;9.25;;
50128;SDS011;36026;45.478;9.224;2024-02-14T05:37:45;16.02;;;9.27;;
50128;SDS011;36026;45.478;9.224;2024-02-14T05:40:50;14.43;;;9.60;;
50128;SDS011;36026;45.478;9.224;2024-02-14T05:43:52;14.55;;;9.15;;
50128;SDS011;36026;45.478;9.224;2024-02-14T05:46:53;14.02;;;9.70;;
50128;SDS011;36026;45.478;9.224;2024-02-14T05:49:55;13.73;;;8.75;;
50128;SDS011;36026;45.478;9.224;2024-02-14T05:52:56;16.70;;;9.43;;
50128;SDS011;36026;45.478;9.224;2024-02-14T05:55:59;14.32;;;8.98;;
50128;SDS011;36026;45.478;9.224;2024-02-14T05:59:01;12.38;;;8.05;;
50128;SDS011;36026;45.478;9.224;2024-02-14T06:02:02;11.52;;;7.88;;
50128;SDS011;36026;45.478;9.224;2024-02-14T06:05:06;12.65;;;8.20;;
50128;SDS011;36026;45.478;9.224;2024-02-14T06:08:09;13.67;;;8.53;;
50128;SDS011;36026;45.478;9.224;2024-02-14T06:11:12;14.83;;;8.20;;
50128;SDS011;36026;45.478;9.224;2024-02-14T06:14:14;12.55;;;8.50;;
50128;SDS011;36026;45.478;9.224;2024-02-14T06:17:16;11.40;;;7.90;;
50128;SDS011;36026;45.478;9.224;2024-02-14T06:20:17;12.73;;;7.75;;
50128;SDS011;36026;45.478;9.224;2024-02-14T06:23:19;12.05;;;7.72;;
50128;SDS011;36026;45.478;9.224;2024-02-14T06:26:22;10.80;;;7.07;;
50128;SDS011;36026;45.478;9.224;2024-02-14T06:29:23;11.57;;;6.93;;
50128;SDS011;36026;45.478;9.224;2024-02-14T06:32:24;10.02;;;6.63;;
50128;SDS011;36026;45.478;9.224;2024-02-14T06:35:26;11.35;;;6.60;;
50128;SDS011;36026;45.478;9.224;2024-02-14T06:38:27;10.77;;;6.57;;
50128;SDS011;36026;45.478;9.224;2024-02-14T06:41:30;10.73;;;6.55;;
50128;SDS011;36026;45.478;9.224;2024-02-14T06:44:31;10.43;;;6.30;;
50128;SDS011;36026;45.478;9.224;2024-02-14T06:47:33;8.68;;;6.32;;
50128;SDS011;36026;45.478;9.224;2024-02-14T06:50:34;9.20;;;6.22;;
50128;SDS011;36026;45.478;9.224;2024-02-14T06:53:36;9.90;;;6.27;;
50128;SDS011;36026;45.478;9.224;2024-02-14T06:56:39;9.35;;;6.30;;
50128;SDS011;36026;45.478;9.224;2024-02-14T06:59:40;11.00;;;6.40;;
50128;SDS011;36026;45.478;9.224;2024-02-14T07:02:42;10.00;;;6.00;;
50128;SDS011;36026;45.478;9.224;2024-02-14T07:05:44;10.73;;;6.13;;
50128;SDS011;36026;45.478;9.224;2024-02-14T07:08:45;7.90;;;6.00;;
50128;SDS011;36026;45.478;9.224;2024-02-14T07:11:49;9.65;;;5.88;;
50128;SDS011;36026;45.478;9.224;2024-02-14T07:14:51;9.27;;;6.05;;
50128;SDS011;36026;45.478;9.224;2024-02-14T07:17:52;12.00;;;6.38;;
50128;SDS011;36026;45.478;9.224;2024-02-14T07:20:54;11.18;;;6.10;;
50128;SDS011;36026;45.478;9.224;2024-02-14T07:23:55;9.95;;;5.90;;
50128;SDS011;36026;45.478;9.224;2024-02-14T07:26:58;9.30;;;6.05;;
50128;SDS011;36026;45.478;9.224;2024-02-14T07:29:59;8.57;;;5.88;;
50128;SDS011;36026;45.478;9.224;2024-02-14T07:33:01;9.15;;;6.10;;
50128;SDS011;36026;45.478;9.224;2024-02-14T07:36:02;12.15;;;7.20;;
50128;SDS011;36026;45.478;9.224;2024-02-14T07:39:04;12.75;;;7.22;;
50128;SDS011;36026;45.478;9.224;2024-02-14T07:42:07;13.75;;;7.53;;
50128;SDS011;36026;45.478;9.224;2024-02-14T07:45:08;12.77;;;7.45;;
50128;SDS011;36026;45.478;9.224;2024-02-14T07:48:10;10.88;;;7.22;;
50128;SDS011;36026;45.478;9.224;2024-02-14T07:51:11;11.57;;;7.30;;
50128;SDS011;36026;45.478;9.224;2024-02-14T07:54:13;9.85;;;7.07;;
50128;SDS011;36026;45.478;9.224;2024-02-14T07:57:16;9.18;;;6.47;;
50128;SDS011;36026;45.478;9.224;2024-02-14T08:00:17;9.50;;;6.35;;
50128;SDS011;36026;45.478;9.224;2024-02-14T08:03:22;10.27;;;6.13;;
50128;SDS011;36026;45.478;9.224;2024-02-14T08:06:24;7.85;;;5.53;;
50128;SDS011;36026;45.478;9.224;2024-02-14T08:09:26;7.87;;;5.97;;
50128;SDS011;36026;45.478;9.224;2024-02-14T08:12:28;8.65;;;5.95;;
50128;SDS011;36026;45.478;9.224;2024-02-14T08:15:30;9.68;;;6.30;;
50128;SDS011;36026;45.478;9.224;2024-02-14T08:18:32;8.67;;;5.80;;
50128;SDS011;36026;45.478;9.224;2024-02-14T08:21:33;8.57;;;5.57;;
50128;SDS011;36026;45.478;9.224;2024-02-14T08:24:36;8.25;;;5.20;;
50128;SDS011;36026;45.478;9.224;2024-02-14T08:27:38;6.55;;;5.00;;
50128;SDS011;36026;45.478;9.224;2024-02-14T08:30:40;7.57;;;5.40;;
50128;SDS011;36026;45.478;9.224;2024-02-14T08:33:41;8.52;;;5.53;;
50128;SDS011;36026;45.478;9.224;2024-02-14T08:36:43;7.85;;;5.43;;
50128;SDS011;36026;45.478;9.224;2024-02-14T08:39:44;8.68;;;5.70;;
50128;SDS011;36026;45.478;9.224;2024-02-14T08:42:47;8.03;;;5.53;;
50128;SDS011;36026;45.478;9.224;2024-02-14T08:45:49;8.87;;;5.67;;
50128;SDS011;36026;45.478;9.224;2024-02-14T08:48:51;7.63;;;5.47;;
50128;SDS011;36026;45.478;9.224;2024-02-14T08:51:54;9.53;;;5.90;;
50128;SDS011;36026;45.478;9.224;2024-02-14T08:54:55;28.35;;;21.00;;
50128;SDS011;36026;45.478;9.224;2024-02-14T08:57:58;44.70;;;30.10;;
50128;SDS011;36026;45.478;9.224;2024-02-14T09:01:00;22.88;;;15.32;;
50128;SDS011;36026;45.478;9.224;2024-02-14T09:04:01;10.18;;;7.03;;
50128;SDS011;36026;45.478;9.224;2024-02-14T09:07:03;9.88;;;6.03;;
50128;SDS011;36026;45.478;9.224;2024-02-14T09:10:05;10.00;;;5.93;;
50128;SDS011;36026;45.478;9.224;2024-02-14T09:13:08;9.25;;;6.20;;
50128;SDS011;36026;45.478;9.224;2024-02-14T09:16:09;10.77;;;6.35;;
50128;SDS011;36026;45.478;9.224;2024-02-14T09:19:11;8.93;;;6.47;;
50128;SDS011;36026;45.478;9.224;2024-02-14T09:22:13;8.18;;;5.60;;
50128;SDS011;36026;45.478;9.224;2024-02-14T09:25:21;10.87;;;6.87;;
50128;SDS011;36026;45.478;9.224;2024-02-14T09:28:24;9.98;;;6.13;;
50128;SDS011;36026;45.478;9.224;2024-02-14T09:31:26;9.47;;;5.27;;
50128;SDS011;36026;45.478;9.224;2024-02-14T09:34:27;8.52;;;5.43;;
50128;SDS011;36026;45.478;9.224;2024-02-14T09:37:29;9.15;;;5.50;;
50128;SDS011;36026;45.478;9.224;2024-02-14T09:40:30;6.40;;;4.88;;
50128;SDS011;36026;45.478;9.224;2024-02-14T09:43:34;7.03;;;4.97;;
50128;SDS011;36026;45.478;9.224;2024-02-14T09:46:36;7.85;;;5.50;;
50128;SDS011;36026;45.478;9.224;2024-02-14T09:49:38;7.68;;;5.03;;
50128;SDS011;36026;45.478;9.224;2024-02-14T09:52:40;7.25;;;5.03;;
50128;SDS011;36026;45.478;9.224;2024-02-14T09:55:42;10.02;;;5.10;;
50128;SDS011;36026;45.478;9.224;2024-02-14T09:58:45;7.80;;;5.43;;
50128;SDS011;36026;45.478;9.224;2024-02-14T10:01:49;8.77;;;5.87;;
50128;SDS011;36026;45.478;9.224;2024-02-14T10:04:52;9.93;;;6.43;;
50128;SDS011;36026;45.478;9.224;2024-02-14T10:07:54;8.23;;;5.55;;
50128;SDS011;36026;45.478;9.224;2024-02-14T10:10:57;11.18;;;6.40;;
50128;SDS011;36026;45.478;9.224;2024-02-14T10:14:01;7.85;;;5.95;;
50128;SDS011;36026;45.478;9.224;2024-02-14T10:17:03;8.90;;;6.80;;
50128;SDS011;36026;45.478;9.224;2024-02-14T10:20:06;8.77;;;6.35;;
50128;SDS011;36026;45.478;9.224;2024-02-14T10:23:08;9.27;;;6.45;;
50128;SDS011;36026;45.478;9.224;2024-02-14T10:26:09;9.43;;;7.00;;
50128;SDS011;36026;45.478;9.224;2024-02-14T10:29:12;10.32;;;7.55;;
50128;SDS011;36026;45.478;9.224;2024-02-14T10:32:14;10.85;;;7.43;;
50128;SDS011;36026;45.478;9.224;2024-02-14T10:35:16;14.70;;;8.77;;
50128;SDS011;36026;45.478;9.224;2024-02-14T10:38:17;11.52;;;8.57;;
50128;SDS011;36026;45.478;9.224;2024-02-14T10:41:20;12.70;;;8.45;;
50128;SDS011;36026;45.478;9.224;2024-02-14T10:44:24;12.43;;;8.75;;
50128;SDS011;36026;45.478;9.224;2024-02-14T10:47:28;10.82;;;8.25;;
50128;SDS011;36026;45.478;9.224;2024-02-14T10:50:31;10.45;;;7.95;;
50128;SDS011;36026;45.478;9.224;2024-02-14T10:53:33;11.98;;;7.95;;
50128;SDS011;36026;45.478;9.224;2024-02-14T10:56:36;15.45;;;9.40;;
50128;SDS011;36026;45.478;9.224;2024-02-14T10:59:41;12.65;;;9.23;;
50128;SDS011;36026;45.478;9.224;2024-02-14T11:02:44;13.50;;;8.70;;
50128;SDS011;36026;45.478;9.224;2024-02-14T11:05:47;12.73;;;8.80;;
50128;SDS011;36026;45.478;9.224;2024-02-14T11:08:56;13.60;;;9.57;;
50128;SDS011;36026;45.478;9.224;2024-02-14T11:11:58;16.10;;;10.20;;
50128;SDS011;36026;45.478;9.224;2024-02-14T11:15:08;13.93;;;10.07;;
50128;SDS011;36026;45.478;9.224;2024-02-14T11:18:11;15.77;;;11.02;;
50128;SDS011;36026;45.478;9.224;2024-02-14T11:21:15;15.52;;;11.05;;
50128;SDS011;36026;45.478;9.224;2024-02-14T11:24:17;16.60;;;11.93;;
50128;SDS011;36026;45.478;9.224;2024-02-14T11:27:19;14.25;;;10.68;;
50128;SDS011;36026;45.478;9.224;2024-02-14T11:30:31;16.25;;;11.57;;
50128;SDS011;36026;45.478;9.224;2024-02-14T11:33:35;16.70;;;11.43;;
50128;SDS011;36026;45.478;9.224;2024-02-14T11:36:37;15.65;;;11.32;;
50128;SDS011;36026;45.478;9.224;2024-02-14T11:39:38;14.35;;;10.40;;
50128;SDS011;36026;45.478;9.224;2024-02-14T11:42:40;13.13;;;9.80;;
50128;SDS011;36026;45.478;9.224;2024-02-14T11:45:43;13.85;;;9.90;;
50128;SDS011;36026;45.478;9.224;2024-02-14T11:48:46;13.75;;;10.05;;
50128;SDS011;36026;45.478;9.224;2024-02-14T11:51:47;13.38;;;10.20;;
50128;SDS011;36026;45.478;9.224;2024-02-14T11:54:49;35.53;;;23.33;;
50128;SDS011;36026;45.478;9.224;2024-02-14T11:57:50;61.67;;;38.90;;
50128;SDS011;36026;45.478;9.224;2024-02-14T12:00:53;34.27;;;22.93;;
50128;SDS011;36026;45.478;9.224;2024-02-14T12:03:55;79.77;;;49.70;;
50128;SDS011;36026;45.478;9.224;2024-02-14T12:06:57;37.07;;;25.03;;
50128;SDS011;36026;45.478;9.224;2024-02-14T12:09:58;40.72;;;28.35;;
50128;SDS011;36026;45.478;9.224;2024-02-14T12:13:04;27.85;;;19.42;;
50128;SDS011;36026;45.478;9.224;2024-02-14T12:16:07;37.80;;;26.02;;
50128;SDS011;36026;45.478;9.224;2024-02-14T12:19:10;30.35;;;21.83;;
50128;SDS011;36026;45.478;9.224;2024-02-14T12:22:15;19.70;;;13.65;;
50128;SDS011;36026;45.478;9.224;2024-02-14T12:25:19;14.90;;;11.18;;
50128;SDS011;36026;45.478;9.224;2024-02-14T12:28:21;14.65;;;10.65;;
50128;SDS011;36026;45.478;9.224;2024-02-14T12:31:25;15.98;;;11.07;;
50128;SDS011;36026;45.478;9.224;2024-02-14T12:34:27;24.00;;;18.13;;
50128;SDS011;36026;45.478;9.224;2024-02-14T12:37:29;52.25;;;36.25;;
50128;SDS011;36026;45.478;9.224;2024-02-14T12:40:30;49.17;;;35.13;;
50128;SDS011;36026;45.478;9.224;2024-02-14T12:43:32;28.57;;;20.67;;
50128;SDS011;36026;45.478;9.224;2024-02-14T12:46:35;20.63;;;12.90;;
50128;SDS011;36026;45.478;9.224;2024-02-14T12:49:38;15.10;;;10.80;;
50128;SDS011;36026;45.478;9.224;2024-02-14T12:52:39;13.13;;;10.13;;
50128;SDS011;36026;45.478;9.224;2024-02-14T12:55:41;12.37;;;9.40;;
50128;SDS011;36026;45.478;9.224;2024-02-14T12:58:42;14.48;;;10.45;;
50128;SDS011;36026;45.478;9.224;2024-02-14T13:01:46;15.85;;;11.07;;
50128;SDS011;36026;45.478;9.224;2024-02-14T13:04:50;13.27;;;9.77;;
50128;SDS011;36026;45.478;9.224;2024-02-14T13:07:52;14.88;;;9.70;;
50128;SDS011;36026;45.478;9.224;2024-02-14T13:10:53;13.80;;;9.65;;
50128;SDS011;36026;45.478;9.224;2024-02-14T13:13:55;14.33;;;9.37;;
50128;SDS011;36026;45.478;9.224;2024-02-14T13:16:58;12.38;;;9.20;;
50128;SDS011;36026;45.478;9.224;2024-02-14T13:19:59;12.93;;;9.40;;
50128;SDS011;36026;45.478;9.224;2024-02-14T13:23:01;12.73;;;9.38;;
50128;SDS011;36026;45.478;9.224;2024-02-14T13:26:03;10.83;;;8.27;;
50128;SDS011;36026;45.478;9.224;2024-02-14T13:29:05;10.55;;;7.93;;
50128;SDS011;36026;45.478;9.224;2024-02-14T13:32:08;13.00;;;9.20;;
50128;SDS011;36026;45.478;9.224;2024-02-14T13:35:10;10.98;;;8.45;;
50128;SDS011;36026;45.478;9.224;2024-02-14T13:38:13;11.07;;;8.02;;
50128;SDS011;36026;45.478;9.224;2024-02-14T13:41:15;9.60;;;7.63;;
50128;SDS011;36026;45.478;9.224;2024-02-14T13:44:16;11.02;;;8.13;;
50128;SDS011;36026;45.478;9.224;2024-02-14T13:47:19;12.48;;;8.13;;
50128;SDS011;36026;45.478;9.224;2024-02-14T13:50:21;9.80;;;7.27;;
50128;SDS011;36026;45.478;9.224;2024-02-14T13:53:23;10.93;;;7.60;;
50128;SDS011;36026;45.478;9.224;2024-02-14T13:56:24;8.48;;;6.22;;
50128;SDS011;36026;45.478;9.224;2024-02-14T13:59:26;8.23;;;6.15;;
50128;SDS011;36026;45.478;9.224;2024-02-14T14:02:29;8.70;;;6.90;;
50128;SDS011;36026;45.478;9.224;2024-02-14T14:05:31;9.02;;;7.20;;
50128;SDS011;36026;45.478;9.224;2024-02-14T14:08:33;10.87;;;7.70;;
50128;SDS011;36026;45.478;9.224;2024-02-14T14:11:35;10.57;;;8.15;;
50128;SDS011;36026;45.478;9.224;2024-02-14T14:14:37;8.40;;;6.50;;
50128;SDS011;36026;45.478;9.224;2024-02-14T14:17:40;20.42;;;15.25;;
50128;SDS011;36026;45.478;9.224;2024-02-14T14:20:42;44.97;;;33.92;;
50128;SDS011;36026;45.478;9.224;2024-02-14T14:23:43;34.95;;;25.52;;
50128;SDS011;36026;45.478;9.224;2024-02-14T14:26:45;13.55;;;10.63;;
50128;SDS011;36026;45.478;9.224;2024-02-14T14:29:46;10.15;;;7.38;;
50128;SDS011;36026;45.478;9.224;2024-02-14T14:32:50;8.35;;;5.95;;
50128;SDS011;36026;45.478;9.224;2024-02-14T14:35:51;7.47;;;5.67;;
50128;SDS011;36026;45.478;9.224;2024-02-14T14:38:53;9.25;;;6.95;;
50128;SDS011;36026;45.478;9.224;2024-02-14T14:41:55;8.77;;;6.57;;
50128;SDS011;36026;45.478;9.224;2024-02-14T14:44:58;8.77;;;6.50;;
50128;SDS011;36026;45.478;9.224;2024-02-14T14:48:01;10.13;;;6.67;;
50128;SDS011;36026;45.478;9.224;2024-02-14T14:51:02;7.33;;;5.30;;
50128;SDS011;36026;45.478;9.224;2024-02-14T14:54:04;10.23;;;7.07;;
50128;SDS011;36026;45.478;9.224;2024-02-14T14:57:06;33.10;;;22.95;;
50128;SDS011;36026;45.478;9.224;2024-02-14T15:00:14;63.47;;;40.58;;
50128;SDS011;36026;45.478;9.224;2024-02-14T15:03:17;18.90;;;12.68;;
50128;SDS011;36026;45.478;9.224;2024-02-14T15:06:19;51.65;;;34.17;;
50128;SDS011;36026;45.478;9.224;2024-02-14T15:09:20;57.85;;;37.47;;
50128;SDS011;36026;45.478;9.224;2024-02-14T15:12:22;20.88;;;13.23;;
50128;SDS011;36026;45.478;9.224;2024-02-14T15:15:26;16.45;;;11.02;;
50128;SDS011;36026;45.478;9.224;2024-02-14T15:18:29;26.77;;;18.73;;
50128;SDS011;36026;45.478;9.224;2024-02-14T15:21:30;11.10;;;7.97;;
50128;SDS011;36026;45.478;9.224;2024-02-14T15:24:31;9.38;;;6.53;;
50128;SDS011;36026;45.478;9.224;2024-02-14T15:27:34;9.13;;;6.45;;
50128;SDS011;36026;45.478;9.224;2024-02-14T15:30:40;10.10;;;6.45;;
50128;SDS011;36026;45.478;9.224;2024-02-14T15:34:00;9.38;;;6.78;;
50128;SDS011;36026;45.478;9.224;2024-02-14T15:37:04;7.07;;;5.10;;
50128;SDS011;36026;45.478;9.224;2024-02-14T15:40:06;6.85;;;4.63;;
50128;SDS011;36026;45.478;9.224;2024-02-14T15:43:08;9.85;;;6.43;;
50128;SDS011;36026;45.478;9.224;2024-02-14T15:46:09;8.73;;;5.93;;
50128;SDS011;36026;45.478;9.224;2024-02-14T15:49:12;8.75;;;5.85;;
50128;SDS011;36026;45.478;9.224;2024-02-14T15:52:14;8.40;;;6.05;;
50128;SDS011;36026;45.478;9.224;2024-02-14T15:55:17;10.17;;;7.00;;
50128;SDS011;36026;45.478;9.224;2024-02-14T15:58:19;10.13;;;6.75;;
50128;SDS011;36026;45.478;9.224;2024-02-14T16:01:20;9.20;;;6.55;;
50128;SDS011;36026;45.478;9.224;2024-02-14T16:04:23;8.68;;;6.10;;
50128;SDS011;36026;45.478;9.224;2024-02-14T16:07:25;8.50;;;5.97;;
50128;SDS011;36026;45.478;9.224;2024-02-14T16:10:26;9.43;;;6.57;;
50128;SDS011;36026;45.478;9.224;2024-02-14T16:13:28;9.93;;;6.75;;
50128;SDS011;36026;45.478;9.224;2024-02-14T16:16:30;10.88;;;7.95;;
50128;SDS011;36026;45.478;9.224;2024-02-14T16:19:33;11.73;;;8.00;;
50128;SDS011;36026;45.478;9.224;2024-02-14T16:22:34;12.40;;;7.97;;
50128;SDS011;36026;45.478;9.224;2024-02-14T16:25:36;11.40;;;7.53;;
50128;SDS011;36026;45.478;9.224;2024-02-14T16:28:37;14.05;;;8.23;;
50128;SDS011;36026;45.478;9.224;2024-02-14T16:31:39;13.85;;;8.95;;
50128;SDS011;36026;45.478;9.224;2024-02-14T16:34:42;12.70;;;8.35;;
50128;SDS011;36026;45.478;9.224;2024-02-14T16:37:48;11.75;;;8.13;;
50128;SDS011;36026;45.478;9.224;2024-02-14T16:40:49;11.63;;;7.47;;
50128;SDS011;36026;45.478;9.224;2024-02-14T16:43:51;10.65;;;7.38;;
50128;SDS011;36026;45.478;9.224;2024-02-14T16:46:52;12.57;;;8.18;;
50128;SDS011;36026;45.478;9.224;2024-02-14T16:49:56;15.07;;;8.80;;
50128;SDS011;36026;45.478;9.224;2024-02-14T16:52:57;12.77;;;8.18;;
50128;SDS011;36026;45.478;9.224;2024-02-14T16:55:59;11.93;;;7.75;;
50128;SDS011;36026;45.478;9.224;2024-02-14T16:59:00;13.93;;;8.07;;
50128;SDS011;36026;45.478;9.224;2024-02-14T17:02:01;11.13;;;7.43;;
50128;SDS011;36026;45.478;9.224;2024-02-14T17:05:06;11.48;;;7.50;;
50128;SDS011;36026;45.478;9.224;2024-02-14T17:08:09;13.73;;;7.60;;
50128;SDS011;36026;45.478;9.224;2024-02-14T17:11:11;12.30;;;7.85;;
50128;SDS011;36026;45.478;9.224;2024-02-14T17:14:13;13.15;;;8.02;;
50128;SDS011;36026;45.478;9.224;2024-02-14T17:17:15;12.43;;;7.90;;
50128;SDS011;36026;45.478;9.224;2024-02-14T17:20:18;10.98;;;7.82;;
50128;SDS011;36026;45.478;9.224;2024-02-14T17:23:19;11.77;;;7.57;;
50128;SDS011;36026;45.478;9.224;2024-02-14T17:26:21;14.15;;;7.68;;
50128;SDS011;36026;45.478;9.224;2024-02-14T17:29:22;11.40;;;7.50;;
50128;SDS011;36026;45.478;9.224;2024-02-14T17:32:24;11.60;;;7.18;;
50128;SDS011;36026;45.478;9.224;2024-02-14T17:35:26;11.38;;;7.50;;
50128;SDS011;36026;45.478;9.224;2024-02-14T17:38:28;11.02;;;7.18;;
50128;SDS011;36026;45.478;9.224;2024-02-14T17:41:31;12.55;;;7.43;;
50128;SDS011;36026;45.478;9.224;2024-02-14T17:44:34;11.13;;;7.27;;
50128;SDS011;36026;45.478;9.224;2024-02-14T17:47:36;11.85;;;7.35;;
50128;SDS011;36026;45.478;9.224;2024-02-14T17:50:39;13.07;;;7.70;;
50128;SDS011;36026;45.478;9.224;2024-02-14T17:53:41;13.30;;;7.85;;
50128;SDS011;36026;45.478;9.224;2024-02-14T17:56:44;14.47;;;8.30;;
50128;SDS011;36026;45.478;9.224;2024-02-14T17:59:45;12.95;;;8.40;;